Bellmore, Indiana
Current Conditions -  °F | °C
As of 2:15 AM on Saturday 20 Dec 2014 (Local Time) from K4I7 Reporting Station
Haze Haze  
Wind Chill: 30°   Ceiling: 2400
Heat Index: 30°   Visibility: 5mi
Dew Point: 25°   Wind: 0mph
Humidity: 80%   Direction: NA
Pressure: 30.28"   Gusts: NA
Location:  39.76°N, 87.11°W
Report Text: K4I7 200715Z AUTO 00000KT 5SM HZ OVC024 M01/M04 A3028 RMK AO2
Loading
Personal Weather Stations






























Interactive Weather Map New forecast layout! Learn more

10-Day Weather Forecast

Advertisements
Track Severe Weather on mobile